sensor_id;sensor_type;location;lat;lon;timestamp;pressure;altitude;pressure_sealevel;temperature;humidity
35023;BME280;21214;44.912;8.204;2023-07-02T00:01:02;98912.19;;;22.77;100.00
35023;BME280;21214;44.912;8.204;2023-07-02T00:03:28;98917.22;;;22.74;100.00
35023;BME280;21214;44.912;8.204;2023-07-02T00:05:54;98906.09;;;22.70;100.00
35023;BME280;21214;44.912;8.204;2023-07-02T00:08:22;98907.25;;;22.63;100.00
35023;BME280;21214;44.912;8.204;2023-07-02T00:10:47;98904.00;;;22.61;100.00
35023;BME280;21214;44.912;8.204;2023-07-02T00:13:13;98904.13;;;22.54;100.00
35023;BME280;21214;44.912;8.204;2023-07-02T00:15:39;98913.72;;;22.50;100.00
35023;BME280;21214;44.912;8.204;2023-07-02T00:18:04;98906.84;;;22.42;100.00
35023;BME280;21214;44.912;8.204;2023-07-02T00:20:30;98909.41;;;22.37;100.00
35023;BME280;21214;44.912;8.204;2023-07-02T00:23:00;98912.66;;;22.39;100.00
35023;BME280;21214;44.912;8.204;2023-07-02T00:25:25;98908.34;;;22.38;100.00
35023;BME280;21214;44.912;8.204;2023-07-02T00:27:51;98914.31;;;22.40;100.00
35023;BME280;21214;44.912;8.204;2023-07-02T00:30:17;98910.56;;;22.41;100.00
35023;BME280;21214;44.912;8.204;2023-07-02T00:32:43;98915.34;;;22.39;100.00
35023;BME280;21214;44.912;8.204;2023-07-02T00:35:09;98926.00;;;22.34;100.00
35023;BME280;21214;44.912;8.204;2023-07-02T00:37:35;98917.38;;;22.32;100.00
35023;BME280;21214;44.912;8.204;2023-07-02T00:40:00;98915.00;;;22.24;100.00
35023;BME280;21214;44.912;8.204;2023-07-02T00:42:25;98915.47;;;22.21;100.00
35023;BME280;21214;44.912;8.204;2023-07-02T00:44:54;98916.38;;;22.15;100.00
35023;BME280;21214;44.912;8.204;2023-07-02T00:47:22;98924.09;;;22.00;100.00
35023;BME280;21214;44.912;8.204;2023-07-02T00:49:48;98925.75;;;22.01;100.00
35023;BME280;21214;44.912;8.204;2023-07-02T00:52:13;98917.91;;;21.99;100.00
35023;BME280;21214;44.912;8.204;2023-07-02T00:54:39;98915.91;;;21.95;100.00
35023;BME280;21214;44.912;8.204;2023-07-02T00:57:06;98915.16;;;21.88;100.00
35023;BME280;21214;44.912;8.204;2023-07-02T00:59:31;98926.38;;;21.85;100.00
35023;BME280;21214;44.912;8.204;2023-07-02T01:02:01;98922.63;;;21.86;100.00
35023;BME280;21214;44.912;8.204;2023-07-02T01:04:27;98925.19;;;21.81;100.00
35023;BME280;21214;44.912;8.204;2023-07-02T01:06:52;98923.28;;;21.70;100.00
35023;BME280;21214;44.912;8.204;2023-07-02T01:09:22;98920.03;;;21.68;100.00
35023;BME280;21214;44.912;8.204;2023-07-02T01:11:57;98924.22;;;21.63;100.00
35023;BME280;21214;44.912;8.204;2023-07-02T01:14:34;98914.16;;;21.59;100.00
35023;BME280;21214;44.912;8.204;2023-07-02T01:17:01;98919.75;;;21.57;100.00
35023;BME280;21214;44.912;8.204;2023-07-02T01:21:58;98909.94;;;21.51;100.00
35023;BME280;21214;44.912;8.204;2023-07-02T01:24:24;98914.47;;;21.51;100.00
35023;BME280;21214;44.912;8.204;2023-07-02T01:26:50;98917.75;;;21.53;100.00
35023;BME280;21214;44.912;8.204;2023-07-02T01:29:15;98918.91;;;21.45;100.00
35023;BME280;21214;44.912;8.204;2023-07-02T01:31:41;98913.41;;;21.40;100.00
35023;BME280;21214;44.912;8.204;2023-07-02T01:34:07;98909.75;;;21.35;100.00
35023;BME280;21214;44.912;8.204;2023-07-02T01:36:33;98912.66;;;21.33;100.00
35023;BME280;21214;44.912;8.204;2023-07-02T01:38:59;98918.38;;;21.25;100.00
35023;BME280;21214;44.912;8.204;2023-07-02T01:41:24;98925.50;;;21.31;100.00
35023;BME280;21214;44.912;8.204;2023-07-02T01:43:50;98918.84;;;21.34;100.00
35023;BME280;21214;44.912;8.204;2023-07-02T01:46:15;98919.41;;;21.24;100.00
35023;BME280;21214;44.912;8.204;2023-07-02T01:48:41;98921.50;;;21.22;100.00
35023;BME280;21214;44.912;8.204;2023-07-02T01:51:07;98914.94;;;21.18;100.00
35023;BME280;21214;44.912;8.204;2023-07-02T01:53:33;98917.47;;;21.13;100.00
35023;BME280;21214;44.912;8.204;2023-07-02T01:55:58;98921.34;;;21.17;100.00
35023;BME280;21214;44.912;8.204;2023-07-02T01:58:24;98923.25;;;21.10;100.00
35023;BME280;21214;44.912;8.204;2023-07-02T02:00:50;98927.22;;;21.07;100.00
35023;BME280;21214;44.912;8.204;2023-07-02T02:03:15;98922.56;;;21.03;100.00
35023;BME280;21214;44.912;8.204;2023-07-02T02:05:41;98921.81;;;20.96;100.00
35023;BME280;21214;44.912;8.204;2023-07-02T02:08:06;98926.34;;;20.95;100.00
35023;BME280;21214;44.912;8.204;2023-07-02T02:10:31;98931.03;;;20.81;100.00
35023;BME280;21214;44.912;8.204;2023-07-02T02:12:57;98930.34;;;20.68;100.00
35023;BME280;21214;44.912;8.204;2023-07-02T02:15:23;98938.41;;;20.68;100.00
35023;BME280;21214;44.912;8.204;2023-07-02T02:17:48;98935.81;;;20.61;100.00
35023;BME280;21214;44.912;8.204;2023-07-02T02:20:13;98928.03;;;20.53;100.00
35023;BME280;21214;44.912;8.204;2023-07-02T02:22:39;98930.47;;;20.12;100.00
35023;BME280;21214;44.912;8.204;2023-07-02T02:25:04;98927.22;;;20.28;100.00
35023;BME280;21214;44.912;8.204;2023-07-02T02:27:30;98922.88;;;20.33;100.00
35023;BME280;21214;44.912;8.204;2023-07-02T02:29:55;98922.06;;;20.33;100.00
35023;BME280;21214;44.912;8.204;2023-07-02T02:32:21;98932.34;;;20.36;100.00
35023;BME280;21214;44.912;8.204;2023-07-02T02:34:47;98932.59;;;20.28;100.00
35023;BME280;21214;44.912;8.204;2023-07-02T02:37:13;98928.00;;;20.10;100.00
35023;BME280;21214;44.912;8.204;2023-07-02T02:39:39;98923.91;;;20.08;100.00
35023;BME280;21214;44.912;8.204;2023-07-02T02:42:05;98930.44;;;19.87;100.00
35023;BME280;21214;44.912;8.204;2023-07-02T02:44:30;98933.41;;;20.03;100.00
35023;BME280;21214;44.912;8.204;2023-07-02T02:46:58;98942.81;;;20.13;100.00
35023;BME280;21214;44.912;8.204;2023-07-02T02:49:23;98941.75;;;20.20;100.00
35023;BME280;21214;44.912;8.204;2023-07-02T02:51:49;98941.50;;;20.22;100.00
35023;BME280;21214;44.912;8.204;2023-07-02T02:54:14;98945.09;;;20.09;100.00
35023;BME280;21214;44.912;8.204;2023-07-02T02:56:40;98944.72;;;20.06;100.00
35023;BME280;21214;44.912;8.204;2023-07-02T02:59:05;98942.84;;;19.81;100.00
35023;BME280;21214;44.912;8.204;2023-07-02T03:01:30;98939.53;;;19.54;100.00
35023;BME280;21214;44.912;8.204;2023-07-02T03:03:57;98942.34;;;19.66;100.00
35023;BME280;21214;44.912;8.204;2023-07-02T03:06:23;98952.59;;;19.69;100.00
35023;BME280;21214;44.912;8.204;2023-07-02T03:08:48;98954.59;;;19.49;100.00
35023;BME280;21214;44.912;8.204;2023-07-02T03:11:14;98953.28;;;19.58;100.00
35023;BME280;21214;44.912;8.204;2023-07-02T03:13:39;98949.75;;;19.64;100.00
35023;BME280;21214;44.912;8.204;2023-07-02T03:16:05;98952.19;;;19.72;100.00
35023;BME280;21214;44.912;8.204;2023-07-02T03:18:31;98951.09;;;19.80;100.00
35023;BME280;21214;44.912;8.204;2023-07-02T03:20:56;98950.47;;;19.84;100.00
35023;BME280;21214;44.912;8.204;2023-07-02T03:23:22;98957.22;;;19.87;100.00
35023;BME280;21214;44.912;8.204;2023-07-02T03:25:47;98962.78;;;19.85;100.00
35023;BME280;21214;44.912;8.204;2023-07-02T03:28:13;98955.63;;;19.79;100.00
35023;BME280;21214;44.912;8.204;2023-07-02T03:30:38;98950.88;;;19.81;100.00
35023;BME280;21214;44.912;8.204;2023-07-02T03:33:04;98955.81;;;19.84;100.00
35023;BME280;21214;44.912;8.204;2023-07-02T03:35:29;98946.13;;;19.83;100.00
35023;BME280;21214;44.912;8.204;2023-07-02T03:37:54;98955.94;;;19.65;100.00
35023;BME280;21214;44.912;8.204;2023-07-02T03:40:20;98956.75;;;19.65;100.00
35023;BME280;21214;44.912;8.204;2023-07-02T03:42:45;98952.25;;;19.59;100.00
35023;BME280;21214;44.912;8.204;2023-07-02T03:45:11;98953.91;;;19.60;100.00
35023;BME280;21214;44.912;8.204;2023-07-02T03:47:36;98961.31;;;19.58;100.00
35023;BME280;21214;44.912;8.204;2023-07-02T03:50:02;98966.25;;;19.61;100.00
35023;BME280;21214;44.912;8.204;2023-07-02T03:52:27;98967.03;;;19.68;100.00
35023;BME280;21214;44.912;8.204;2023-07-02T03:54:52;98964.97;;;19.70;100.00
35023;BME280;21214;44.912;8.204;2023-07-02T03:57:18;98973.59;;;19.72;100.00
35023;BME280;21214;44.912;8.204;2023-07-02T03:59:43;98974.81;;;19.76;100.00
35023;BME280;21214;44.912;8.204;2023-07-02T04:02:09;98973.78;;;19.77;100.00
35023;BME280;21214;44.912;8.204;2023-07-02T04:04:34;98967.22;;;19.73;100.00
35023;BME280;21214;44.912;8.204;2023-07-02T04:07:00;98973.59;;;19.72;100.00
35023;BME280;21214;44.912;8.204;2023-07-02T04:09:25;98987.56;;;19.74;100.00
35023;BME280;21214;44.912;8.204;2023-07-02T04:11:50;98989.66;;;19.72;100.00
35023;BME280;21214;44.912;8.204;2023-07-02T04:14:16;98986.84;;;19.60;100.00
35023;BME280;21214;44.912;8.204;2023-07-02T04:16:43;98985.00;;;19.61;100.00
35023;BME280;21214;44.912;8.204;2023-07-02T04:19:09;98992.59;;;19.64;100.00
35023;BME280;21214;44.912;8.204;2023-07-02T04:21:35;98996.66;;;19.73;100.00
35023;BME280;21214;44.912;8.204;2023-07-02T04:24:00;98998.53;;;19.73;100.00
35023;BME280;21214;44.912;8.204;2023-07-02T04:26:26;98987.56;;;19.74;100.00
35023;BME280;21214;44.912;8.204;2023-07-02T04:28:52;98994.78;;;19.74;100.00
35023;BME280;21214;44.912;8.204;2023-07-02T04:31:18;98998.97;;;19.63;100.00
35023;BME280;21214;44.912;8.204;2023-07-02T04:33:44;99005.00;;;19.52;100.00
35023;BME280;21214;44.912;8.204;2023-07-02T04:36:10;99008.94;;;19.43;100.00
35023;BME280;21214;44.912;8.204;2023-07-02T04:38:35;99005.03;;;19.39;100.00
35023;BME280;21214;44.912;8.204;2023-07-02T04:41:00;99003.78;;;19.48;100.00
35023;BME280;21214;44.912;8.204;2023-07-02T04:43:30;99010.34;;;19.52;100.00
35023;BME280;21214;44.912;8.204;2023-07-02T04:45:56;99019.00;;;19.54;100.00
35023;BME280;21214;44.912;8.204;2023-07-02T04:48:22;99021.03;;;19.58;100.00
35023;BME280;21214;44.912;8.204;2023-07-02T04:50:47;99019.16;;;19.66;100.00
35023;BME280;21214;44.912;8.204;2023-07-02T04:53:13;99019.53;;;19.69;100.00
35023;BME280;21214;44.912;8.204;2023-07-02T04:55:38;99029.81;;;19.72;100.00
35023;BME280;21214;44.912;8.204;2023-07-02T04:58:03;99020.31;;;19.76;100.00
35023;BME280;21214;44.912;8.204;2023-07-02T05:00:28;99021.09;;;19.83;100.00
35023;BME280;21214;44.912;8.204;2023-07-02T05:02:54;99028.94;;;19.85;100.00
35023;BME280;21214;44.912;8.204;2023-07-02T05:05:19;99025.44;;;19.84;100.00
35023;BME280;21214;44.912;8.204;2023-07-02T05:07:45;99023.13;;;19.88;100.00
35023;BME280;21214;44.912;8.204;2023-07-02T05:10:10;99024.97;;;19.87;100.00
35023;BME280;21214;44.912;8.204;2023-07-02T05:12:35;99026.28;;;19.78;100.00
35023;BME280;21214;44.912;8.204;2023-07-02T05:15:00;99028.16;;;19.71;100.00
35023;BME280;21214;44.912;8.204;2023-07-02T05:17:26;99029.25;;;19.57;100.00
35023;BME280;21214;44.912;8.204;2023-07-02T05:19:51;99026.16;;;19.67;100.00
35023;BME280;21214;44.912;8.204;2023-07-02T05:22:17;99027.91;;;19.79;100.00
35023;BME280;21214;44.912;8.204;2023-07-02T05:24:42;99029.94;;;19.90;100.00
35023;BME280;21214;44.912;8.204;2023-07-02T05:27:09;99033.97;;;19.99;100.00
35023;BME280;21214;44.912;8.204;2023-07-02T05:29:34;99025.25;;;20.11;100.00
35023;BME280;21214;44.912;8.204;2023-07-02T05:31:59;99038.44;;;20.12;100.00
35023;BME280;21214;44.912;8.204;2023-07-02T05:34:25;99038.06;;;20.09;100.00
35023;BME280;21214;44.912;8.204;2023-07-02T05:36:50;99037.59;;;20.12;100.00
35023;BME280;21214;44.912;8.204;2023-07-02T05:39:16;99044.00;;;20.11;100.00
35023;BME280;21214;44.912;8.204;2023-07-02T05:41:41;99033.44;;;20.16;100.00
35023;BME280;21214;44.912;8.204;2023-07-02T05:44:06;99042.88;;;20.25;100.00
35023;BME280;21214;44.912;8.204;2023-07-02T05:46:32;99035.41;;;20.27;100.00
35023;BME280;21214;44.912;8.204;2023-07-02T05:48:57;99039.31;;;20.31;100.00
35023;BME280;21214;44.912;8.204;2023-07-02T05:51:23;99043.41;;;20.40;100.00
35023;BME280;21214;44.912;8.204;2023-07-02T05:53:49;99041.91;;;20.44;100.00
35023;BME280;21214;44.912;8.204;2023-07-02T05:56:16;99043.31;;;20.53;100.00
35023;BME280;21214;44.912;8.204;2023-07-02T05:58:41;99041.38;;;20.60;100.00
35023;BME280;21214;44.912;8.204;2023-07-02T06:01:06;99048.09;;;20.69;100.00
35023;BME280;21214;44.912;8.204;2023-07-02T06:03:32;99041.44;;;20.78;100.00
35023;BME280;21214;44.912;8.204;2023-07-02T06:05:57;99046.94;;;20.83;100.00
35023;BME280;21214;44.912;8.204;2023-07-02T06:08:22;99051.44;;;20.90;100.00
35023;BME280;21214;44.912;8.204;2023-07-02T06:10:48;99051.72;;;21.00;100.00
35023;BME280;21214;44.912;8.204;2023-07-02T06:13:13;99052.50;;;21.07;100.00
35023;BME280;21214;44.912;8.204;2023-07-02T06:15:39;99059.03;;;21.11;100.00
35023;BME280;21214;44.912;8.204;2023-07-02T06:18:04;99059.38;;;21.21;100.00
35023;BME280;21214;44.912;8.204;2023-07-02T06:20:29;99065.06;;;21.31;100.00
35023;BME280;21214;44.912;8.204;2023-07-02T06:22:55;99069.53;;;21.37;100.00
35023;BME280;21214;44.912;8.204;2023-07-02T06:25:20;99071.47;;;21.48;100.00
35023;BME280;21214;44.912;8.204;2023-07-02T06:27:46;99065.63;;;21.51;100.00
35023;BME280;21214;44.912;8.204;2023-07-02T06:30:11;99071.75;;;21.58;100.00
35023;BME280;21214;44.912;8.204;2023-07-02T06:32:37;99072.94;;;21.62;100.00
35023;BME280;21214;44.912;8.204;2023-07-02T06:35:02;99070.75;;;21.71;100.00
35023;BME280;21214;44.912;8.204;2023-07-02T06:37:28;99086.34;;;21.81;100.00
35023;BME280;21214;44.912;8.204;2023-07-02T06:39:53;99075.88;;;21.91;100.00
35023;BME280;21214;44.912;8.204;2023-07-02T06:42:18;99073.38;;;21.96;100.00
35023;BME280;21214;44.912;8.204;2023-07-02T06:44:44;99073.63;;;22.06;100.00
35023;BME280;21214;44.912;8.204;2023-07-02T06:47:09;99072.94;;;22.11;100.00
35023;BME280;21214;44.912;8.204;2023-07-02T06:49:36;99074.00;;;22.21;100.00
35023;BME280;21214;44.912;8.204;2023-07-02T06:52:01;99077.66;;;22.27;100.00
35023;BME280;21214;44.912;8.204;2023-07-02T06:54:26;99089.81;;;22.29;100.00
35023;BME280;21214;44.912;8.204;2023-07-02T06:56:52;99087.28;;;22.34;100.00
35023;BME280;21214;44.912;8.204;2023-07-02T06:59:20;99081.44;;;22.37;100.00
35023;BME280;21214;44.912;8.204;2023-07-02T07:01:46;99091.28;;;22.43;100.00
35023;BME280;21214;44.912;8.204;2023-07-02T07:04:11;99091.97;;;22.51;100.00
35023;BME280;21214;44.912;8.204;2023-07-02T07:06:36;99096.09;;;22.53;100.00
35023;BME280;21214;44.912;8.204;2023-07-02T07:09:03;99087.31;;;22.58;100.00
35023;BME280;21214;44.912;8.204;2023-07-02T07:11:28;99091.78;;;22.64;100.00
35023;BME280;21214;44.912;8.204;2023-07-02T07:13:54;99090.84;;;22.70;100.00
35023;BME280;21214;44.912;8.204;2023-07-02T07:16:19;99091.59;;;22.77;100.00
35023;BME280;21214;44.912;8.204;2023-07-02T07:18:44;99087.38;;;22.81;100.00
35023;BME280;21214;44.912;8.204;2023-07-02T07:21:10;99089.06;;;22.64;100.00
35023;BME280;21214;44.912;8.204;2023-07-02T07:23:35;99094.72;;;22.74;100.00
35023;BME280;21214;44.912;8.204;2023-07-02T07:26:00;99090.66;;;22.83;100.00
35023;BME280;21214;44.912;8.204;2023-07-02T07:28:26;99086.00;;;22.90;100.00
35023;BME280;21214;44.912;8.204;2023-07-02T07:30:52;99080.00;;;23.00;100.00
35023;BME280;21214;44.912;8.204;2023-07-02T07:33:17;99086.44;;;22.99;100.00
35023;BME280;21214;44.912;8.204;2023-07-02T07:35:43;99089.84;;;23.06;100.00
35023;BME280;21214;44.912;8.204;2023-07-02T07:38:08;99090.31;;;23.14;100.00
35023;BME280;21214;44.912;8.204;2023-07-02T07:40:33;99082.34;;;23.19;100.00
35023;BME280;21214;44.912;8.204;2023-07-02T07:42:59;99087.84;;;23.24;100.00
35023;BME280;21214;44.912;8.204;2023-07-02T07:45:24;99096.50;;;23.26;100.00
35023;BME280;21214;44.912;8.204;2023-07-02T07:47:49;99092.28;;;23.31;100.00
35023;BME280;21214;44.912;8.204;2023-07-02T07:50:15;99096.00;;;23.41;100.00
35023;BME280;21214;44.912;8.204;2023-07-02T07:52:42;99084.09;;;23.49;100.00
35023;BME280;21214;44.912;8.204;2023-07-02T07:55:08;99084.78;;;23.56;100.00
35023;BME280;21214;44.912;8.204;2023-07-02T07:57:34;99096.81;;;23.65;100.00
35023;BME280;21214;44.912;8.204;2023-07-02T07:59:59;99099.03;;;23.68;100.00
35023;BME280;21214;44.912;8.204;2023-07-02T08:02:24;99096.47;;;23.73;100.00
35023;BME280;21214;44.912;8.204;2023-07-02T08:04:50;99092.44;;;23.76;100.00
35023;BME280;21214;44.912;8.204;2023-07-02T08:07:15;99093.84;;;23.78;100.00
35023;BME280;21214;44.912;8.204;2023-07-02T08:09:40;99097.25;;;23.85;100.00
35023;BME280;21214;44.912;8.204;2023-07-02T08:12:06;99100.13;;;23.95;100.00
35023;BME280;21214;44.912;8.204;2023-07-02T08:14:31;99099.97;;;24.02;100.00
35023;BME280;21214;44.912;8.204;2023-07-02T08:16:56;99094.91;;;24.05;100.00
35023;BME280;21214;44.912;8.204;2023-07-02T08:19:22;99094.91;;;24.05;100.00
35023;BME280;21214;44.912;8.204;2023-07-02T08:21:47;99100.41;;;24.11;100.00
35023;BME280;21214;44.912;8.204;2023-07-02T08:24:12;99103.34;;;24.21;100.00
35023;BME280;21214;44.912;8.204;2023-07-02T08:26:38;99100.22;;;24.29;100.00
35023;BME280;21214;44.912;8.204;2023-07-02T08:29:04;99102.53;;;24.37;100.00
35023;BME280;21214;44.912;8.204;2023-07-02T08:31:29;99104.81;;;24.45;100.00
35023;BME280;21214;44.912;8.204;2023-07-02T08:33:54;99106.16;;;24.42;100.00
35023;BME280;21214;44.912;8.204;2023-07-02T08:36:20;99098.38;;;24.46;100.00
35023;BME280;21214;44.912;8.204;2023-07-02T08:38:45;99091.44;;;24.50;100.00
35023;BME280;21214;44.912;8.204;2023-07-02T08:41:11;99094.22;;;24.55;100.00
35023;BME280;21214;44.912;8.204;2023-07-02T08:43:37;99093.72;;;24.58;100.00
35023;BME280;21214;44.912;8.204;2023-07-02T08:46:02;99091.09;;;24.63;100.00
35023;BME280;21214;44.912;8.204;2023-07-02T08:48:28;99090.72;;;24.71;100.00
35023;BME280;21214;44.912;8.204;2023-07-02T08:50:55;99091.28;;;24.73;100.00
35023;BME280;21214;44.912;8.204;2023-07-02T08:53:20;99092.91;;;24.74;100.00
35023;BME280;21214;44.912;8.204;2023-07-02T08:55:50;99094.06;;;24.78;100.00
35023;BME280;21214;44.912;8.204;2023-07-02T08:58:15;99081.25;;;24.85;100.00
35023;BME280;21214;44.912;8.204;2023-07-02T09:01:03;99094.25;;;24.88;100.00
35023;BME280;21214;44.912;8.204;2023-07-02T09:03:26;99092.13;;;24.91;100.00
35023;BME280;21214;44.912;8.204;2023-07-02T09:05:52;99091.16;;;24.97;100.00
35023;BME280;21214;44.912;8.204;2023-07-02T09:08:27;99093.69;;;25.03;100.00
35023;BME280;21214;44.912;8.204;2023-07-02T09:10:53;99087.53;;;25.08;100.00
35023;BME280;21214;44.912;8.204;2023-07-02T09:13:18;99091.44;;;25.17;100.00
35023;BME280;21214;44.912;8.204;2023-07-02T09:15:43;99086.69;;;25.24;100.00
35023;BME280;21214;44.912;8.204;2023-07-02T09:20:40;99085.16;;;25.33;100.00
35023;BME280;21214;44.912;8.204;2023-07-02T09:23:05;99086.00;;;25.34;100.00
35023;BME280;21214;44.912;8.204;2023-07-02T09:25:38;99079.88;;;25.38;100.00
35023;BME280;21214;44.912;8.204;2023-07-02T09:28:14;99082.09;;;25.46;100.00
35023;BME280;21214;44.912;8.204;2023-07-02T09:30:53;99081.34;;;25.51;100.00
35023;BME280;21214;44.912;8.204;2023-07-02T09:33:18;99077.03;;;25.50;100.00
35023;BME280;21214;44.912;8.204;2023-07-02T09:35:45;99078.41;;;25.52;100.00
35023;BME280;21214;44.912;8.204;2023-07-02T09:38:11;99082.28;;;25.56;100.00
35023;BME280;21214;44.912;8.204;2023-07-02T09:40:37;99072.84;;;25.59;100.00
35023;BME280;21214;44.912;8.204;2023-07-02T09:43:09;99071.03;;;25.64;100.00
35023;BME280;21214;44.912;8.204;2023-07-02T09:45:35;99068.38;;;25.69;100.00
35023;BME280;21214;44.912;8.204;2023-07-02T09:48:01;99063.84;;;25.75;100.00
35023;BME280;21214;44.912;8.204;2023-07-02T09:50:27;99068.75;;;25.78;100.00
35023;BME280;21214;44.912;8.204;2023-07-02T09:52:53;99069.06;;;25.82;100.00
35023;BME280;21214;44.912;8.204;2023-07-02T09:55:18;99068.06;;;25.88;100.00
35023;BME280;21214;44.912;8.204;2023-07-02T09:57:44;99064.34;;;25.94;100.00
35023;BME280;21214;44.912;8.204;2023-07-02T10:00:10;99064.94;;;26.01;100.00
35023;BME280;21214;44.912;8.204;2023-07-02T10:02:36;99067.72;;;26.06;100.00
35023;BME280;21214;44.912;8.204;2023-07-02T10:05:03;99062.38;;;26.16;100.00
35023;BME280;21214;44.912;8.204;2023-07-02T10:07:30;99061.72;;;26.26;100.00
35023;BME280;21214;44.912;8.204;2023-07-02T10:09:56;99070.94;;;26.30;100.00
35023;BME280;21214;44.912;8.204;2023-07-02T10:12:22;99070.69;;;26.31;100.00
35023;BME280;21214;44.912;8.204;2023-07-02T10:14:48;99055.56;;;26.35;100.00
35023;BME280;21214;44.912;8.204;2023-07-02T10:17:30;99062.91;;;26.40;100.00
35023;BME280;21214;44.912;8.204;2023-07-02T10:19:59;99059.47;;;26.44;100.00
35023;BME280;21214;44.912;8.204;2023-07-02T10:22:25;99052.91;;;26.40;100.00
35023;BME280;21214;44.912;8.204;2023-07-02T10:27:18;99051.88;;;26.46;100.00
35023;BME280;21214;44.912;8.204;2023-07-02T10:29:49;99054.09;;;26.49;100.00
35023;BME280;21214;44.912;8.204;2023-07-02T10:32:25;99050.84;;;26.53;100.00
35023;BME280;21214;44.912;8.204;2023-07-02T10:34:51;99049.81;;;26.59;100.00
35023;BME280;21214;44.912;8.204;2023-07-02T10:37:16;99046.91;;;26.65;100.00
35023;BME280;21214;44.912;8.204;2023-07-02T10:39:42;99047.25;;;26.74;100.00
35023;BME280;21214;44.912;8.204;2023-07-02T10:42:08;99049.44;;;26.82;100.00
35023;BME280;21214;44.912;8.204;2023-07-02T10:44:34;99060.91;;;26.89;100.00
35023;BME280;21214;44.912;8.204;2023-07-02T10:47:00;99059.88;;;26.95;100.00
35023;BME280;21214;44.912;8.204;2023-07-02T10:49:32;99053.41;;;27.01;100.00
35023;BME280;21214;44.912;8.204;2023-07-02T10:52:02;99051.28;;;27.08;100.00
35023;BME280;21214;44.912;8.204;2023-07-02T10:54:38;99055.13;;;27.17;100.00
35023;BME280;21214;44.912;8.204;2023-07-02T10:57:06;99058.91;;;27.16;100.00
35023;BME280;21214;44.912;8.204;2023-07-02T10:59:31;99058.38;;;27.14;100.00
35023;BME280;21214;44.912;8.204;2023-07-02T11:01:57;99049.69;;;27.12;100.00
35023;BME280;21214;44.912;8.204;2023-07-02T11:04:27;99052.94;;;27.14;100.00
35023;BME280;21214;44.912;8.204;2023-07-02T11:06:52;99052.41;;;27.17;100.00
35023;BME280;21214;44.912;8.204;2023-07-02T11:09:18;99049.22;;;27.25;99.57
35023;BME280;21214;44.912;8.204;2023-07-02T11:11:49;99053.56;;;27.26;100.00
35023;BME280;21214;44.912;8.204;2023-07-02T11:14:14;99049.72;;;27.22;100.00
35023;BME280;21214;44.912;8.204;2023-07-02T11:16:40;99044.63;;;27.26;100.00
35023;BME280;21214;44.912;8.204;2023-07-02T11:19:06;99059.81;;;27.32;100.00
35023;BME280;21214;44.912;8.204;2023-07-02T11:21:36;99050.06;;;27.36;100.00
35023;BME280;21214;44.912;8.204;2023-07-02T11:24:05;99044.94;;;27.40;100.00
35023;BME280;21214;44.912;8.204;2023-07-02T11:26:35;99048.22;;;27.47;100.00
35023;BME280;21214;44.912;8.204;2023-07-02T11:29:00;99038.53;;;27.56;99.75
35023;BME280;21214;44.912;8.204;2023-07-02T11:31:25;99038.00;;;27.59;97.06
35023;BME280;21214;44.912;8.204;2023-07-02T11:33:52;99035.88;;;27.66;97.36
35023;BME280;21214;44.912;8.204;2023-07-02T11:36:23;99029.09;;;27.68;97.66
35023;BME280;21214;44.912;8.204;2023-07-02T11:38:52;99035.06;;;27.70;96.78
35023;BME280;21214;44.912;8.204;2023-07-02T11:41:18;99031.53;;;27.75;96.18
35023;BME280;21214;44.912;8.204;2023-07-02T11:43:43;99024.78;;;27.78;93.53
35023;BME280;21214;44.912;8.204;2023-07-02T11:46:09;99026.16;;;27.85;93.52
35023;BME280;21214;44.912;8.204;2023-07-02T11:48:35;99028.34;;;27.93;94.82
35023;BME280;21214;44.912;8.204;2023-07-02T11:51:01;99022.94;;;28.03;94.98
35023;BME280;21214;44.912;8.204;2023-07-02T11:53:26;99028.41;;;28.14;93.39
35023;BME280;21214;44.912;8.204;2023-07-02T11:55:51;99022.97;;;28.24;92.60
35023;BME280;21214;44.912;8.204;2023-07-02T11:58:17;99030.03;;;28.40;90.37
35023;BME280;21214;44.912;8.204;2023-07-02T12:00:42;99020.84;;;28.51;90.84
35023;BME280;21214;44.912;8.204;2023-07-02T12:03:07;99017.53;;;28.64;89.18
35023;BME280;21214;44.912;8.204;2023-07-02T12:05:33;99018.66;;;28.78;87.93
35023;BME280;21214;44.912;8.204;2023-07-02T12:07:58;99010.75;;;28.92;89.24
35023;BME280;21214;44.912;8.204;2023-07-02T12:10:24;99008.81;;;29.03;90.54
35023;BME280;21214;44.912;8.204;2023-07-02T12:12:49;99005.22;;;29.17;91.43
35023;BME280;21214;44.912;8.204;2023-07-02T12:15:15;99010.38;;;29.24;89.70
35023;BME280;21214;44.912;8.204;2023-07-02T12:17:40;99011.44;;;29.28;90.17
35023;BME280;21214;44.912;8.204;2023-07-02T12:20:05;99007.88;;;29.43;90.24
35023;BME280;21214;44.912;8.204;2023-07-02T12:22:31;99018.41;;;29.59;89.59
35023;BME280;21214;44.912;8.204;2023-07-02T12:24:56;99011.28;;;29.74;86.19
35023;BME280;21214;44.912;8.204;2023-07-02T12:27:22;99006.31;;;29.86;83.96
35023;BME280;21214;44.912;8.204;2023-07-02T12:29:47;99000.81;;;29.96;85.55
35023;BME280;21214;44.912;8.204;2023-07-02T12:32:14;99007.72;;;30.17;85.09
35023;BME280;21214;44.912;8.204;2023-07-02T12:34:39;99007.00;;;30.40;85.47
35023;BME280;21214;44.912;8.204;2023-07-02T12:37:04;99010.69;;;30.60;84.43
35023;BME280;21214;44.912;8.204;2023-07-02T12:39:30;99001.78;;;30.78;83.52
35023;BME280;21214;44.912;8.204;2023-07-02T12:41:55;99001.19;;;30.81;82.77
35023;BME280;21214;44.912;8.204;2023-07-02T12:44:21;99006.28;;;30.92;81.54
35023;BME280;21214;44.912;8.204;2023-07-02T12:46:46;99004.25;;;31.03;82.49
35023;BME280;21214;44.912;8.204;2023-07-02T12:49:12;99000.75;;;31.26;81.48
35023;BME280;21214;44.912;8.204;2023-07-02T12:51:38;98998.00;;;31.50;80.82